createdAt,value
2018-12-26T00:00:54.727Z,17.20
2018-12-26T00:03:23.287Z,18.57
2018-12-26T00:05:52.124Z,17.10
2018-12-26T00:08:20.776Z,17.67
2018-12-26T00:10:49.452Z,16.40
2018-12-26T00:13:18.344Z,17.23
2018-12-26T00:15:47.470Z,18.10
2018-12-26T00:18:16.460Z,18.10
2018-12-26T00:20:45.147Z,16.80
2018-12-26T00:23:13.800Z,17.60
2018-12-26T00:25:42.447Z,19.07
2018-12-26T00:28:11.589Z,18.20
2018-12-26T00:30:40.488Z,18.07
2018-12-26T00:33:09.156Z,18.53
2018-12-26T00:35:37.854Z,18.27
2018-12-26T00:38:06.979Z,18.00
2018-12-26T00:40:35.669Z,19.33
2018-12-26T00:43:04.810Z,19.97
2018-12-26T00:45:33.879Z,20.07
2018-12-26T00:48:02.936Z,20.20
2018-12-26T00:50:31.981Z,20.60
2018-12-26T00:53:00.976Z,18.90
2018-12-26T00:55:29.524Z,21.20
2018-12-26T00:57:58.295Z,19.77
2018-12-26T01:00:27.410Z,19.03
2018-12-26T01:02:56.006Z,18.83
2018-12-26T01:05:24.784Z,19.67
2018-12-26T01:07:53.692Z,18.77
2018-12-26T01:10:22.697Z,19.80
2018-12-26T01:12:51.308Z,20.20
2018-12-26T01:15:19.949Z,18.40
2018-12-26T01:17:48.713Z,19.60
2018-12-26T01:20:17.277Z,19.27
2018-12-26T01:22:46.048Z,19.73
2018-12-26T01:25:14.857Z,19.07
2018-12-26T01:27:44.055Z,18.83
2018-12-26T01:30:12.939Z,19.60
2018-12-26T01:32:41.888Z,20.60
2018-12-26T01:35:10.707Z,19.63
2018-12-26T01:37:39.526Z,18.87
2018-12-26T01:40:10.526Z,17.47
2018-12-26T01:42:39.804Z,17.90
2018-12-26T01:45:08.726Z,19.37
2018-12-26T01:47:37.522Z,18.63
2018-12-26T01:50:07.584Z,18.47
2018-12-26T01:52:36.155Z,19.33
2018-12-26T01:55:05.391Z,19.20
2018-12-26T01:57:34.296Z,18.30
2018-12-26T02:00:03.553Z,19.17
2018-12-26T02:02:32.382Z,16.80
2018-12-26T02:05:00.926Z,19.20
2018-12-26T02:07:29.449Z,19.40
2018-12-26T02:09:58.138Z,20.50
2018-12-26T02:12:27.119Z,17.87
2018-12-26T02:14:55.858Z,19.60
2018-12-26T02:17:24.790Z,17.77
2018-12-26T02:19:54.083Z,16.83
2018-12-26T02:22:22.926Z,19.10
2018-12-26T02:24:52.034Z,20.73
2018-12-26T02:27:22.698Z,17.43
2018-12-26T02:29:51.422Z,19.43
2018-12-26T02:32:20.249Z,17.07
2018-12-26T02:34:49.537Z,19.80
2018-12-26T02:37:18.849Z,18.23
2018-12-26T02:39:47.699Z,19.00
2018-12-26T02:42:16.768Z,19.17
2018-12-26T02:44:46.044Z,19.23
2018-12-26T02:47:15.282Z,18.20
2018-12-26T02:49:44.694Z,18.67
2018-12-26T02:52:13.606Z,18.87
2018-12-26T02:54:42.341Z,18.87
2018-12-26T02:57:11.272Z,18.97
2018-12-26T02:59:40.374Z,18.40
2018-12-26T03:02:09.359Z,20.23
2018-12-26T03:04:38.001Z,20.20
2018-12-26T03:07:07.190Z,19.27
2018-12-26T03:09:36.146Z,18.17
2018-12-26T03:12:05.007Z,20.30
2018-12-26T03:14:33.930Z,19.40
2018-12-26T03:17:02.728Z,18.03
2018-12-26T03:19:31.922Z,21.10
2018-12-26T03:22:01.079Z,18.40
2018-12-26T03:24:30.017Z,19.50
2018-12-26T03:26:59.182Z,19.70
2018-12-26T03:29:28.082Z,19.90
2018-12-26T03:31:56.941Z,20.03
2018-12-26T03:34:26.290Z,21.17
2018-12-26T03:36:55.147Z,20.67
2018-12-26T03:39:23.992Z,19.77
2018-12-26T03:41:53.283Z,20.30
2018-12-26T03:44:23.206Z,20.07
2018-12-26T03:46:52.550Z,21.07
2018-12-26T03:49:21.198Z,22.03
2018-12-26T03:51:49.843Z,20.17
2018-12-26T03:54:18.514Z,21.40
2018-12-26T03:56:47.719Z,21.27
2018-12-26T03:59:16.453Z,20.77
2018-12-26T04:01:49.789Z,21.50
2018-12-26T04:04:18.441Z,21.17
2018-12-26T04:06:47.267Z,20.83
2018-12-26T04:09:15.773Z,19.57
2018-12-26T04:11:44.737Z,21.93
2018-12-26T04:14:13.629Z,21.27
2018-12-26T04:16:43.065Z,20.37
2018-12-26T04:19:12.133Z,21.20
2018-12-26T04:21:41.621Z,20.63
2018-12-26T04:24:10.782Z,20.27
2018-12-26T04:26:39.522Z,19.70
2018-12-26T04:29:08.399Z,20.70
2018-12-26T04:31:39.158Z,21.27
2018-12-26T04:34:07.545Z,21.90
2018-12-26T04:36:39.106Z,22.83
2018-12-26T04:39:07.982Z,21.17
2018-12-26T04:41:39.946Z,21.30
2018-12-26T04:44:10.393Z,19.97
2018-12-26T04:46:38.995Z,22.03
2018-12-26T04:49:07.695Z,20.60
2018-12-26T04:51:36.624Z,20.13
2018-12-26T04:54:05.652Z,22.20
2018-12-26T04:56:34.561Z,21.67
2018-12-26T04:59:03.221Z,22.80
2018-12-26T05:01:34.350Z,21.00
2018-12-26T05:04:02.961Z,22.57
2018-12-26T05:06:32.221Z,21.60
2018-12-26T05:09:01.289Z,21.57
2018-12-26T05:11:30.580Z,21.60
2018-12-26T05:13:59.496Z,22.80
2018-12-26T05:16:28.521Z,21.23
2018-12-26T05:18:57.367Z,21.30
2018-12-26T05:21:27.711Z,21.33
2018-12-26T05:23:56.545Z,21.17
2018-12-26T05:26:25.397Z,21.40
2018-12-26T05:28:54.056Z,22.47
2018-12-26T05:31:22.752Z,22.00
2018-12-26T05:33:52.160Z,22.10
2018-12-26T05:36:20.961Z,22.03
2018-12-26T05:38:50.072Z,22.00
2018-12-26T05:41:19.004Z,19.90
2018-12-26T05:43:48.151Z,18.63
2018-12-26T05:46:17.040Z,20.03
2018-12-26T05:48:46.088Z,21.27
2018-12-26T05:51:15.324Z,20.83
2018-12-26T05:53:44.247Z,22.37
2018-12-26T05:56:13.227Z,22.27
2018-12-26T05:58:42.264Z,19.93
2018-12-26T06:01:11.558Z,20.60
2018-12-26T06:03:42.181Z,20.80
2018-12-26T06:06:10.667Z,21.30
2018-12-26T06:08:39.184Z,22.40
2018-12-26T06:11:07.747Z,21.13
2018-12-26T06:13:36.612Z,21.60
2018-12-26T06:16:05.348Z,19.43
2018-12-26T06:18:33.966Z,20.57
2018-12-26T06:21:02.440Z,19.93
2018-12-26T06:23:31.309Z,20.67
2018-12-26T06:25:59.786Z,21.87
2018-12-26T06:28:28.275Z,20.97
2018-12-26T06:30:57.049Z,21.20
2018-12-26T06:33:25.514Z,20.63
2018-12-26T06:35:54.254Z,19.70
2018-12-26T06:38:23.020Z,21.30
2018-12-26T06:40:51.854Z,20.13
2018-12-26T06:43:20.707Z,19.73
2018-12-26T06:45:49.885Z,18.17
2018-12-26T06:48:19.076Z,19.17
2018-12-26T06:50:47.959Z,20.27
2018-12-26T06:53:17.307Z,20.50
2018-12-26T06:55:46.304Z,19.53
2018-12-26T06:58:15.186Z,19.60
2018-12-26T07:00:44.280Z,20.07
2018-12-26T07:03:13.210Z,20.87
2018-12-26T07:05:42.840Z,19.80
2018-12-26T07:08:12.381Z,18.40
2018-12-26T07:10:43.919Z,20.10
2018-12-26T07:13:13.000Z,19.70
2018-12-26T07:15:42.143Z,18.40
2018-12-26T07:18:10.986Z,19.40
2018-12-26T07:20:39.596Z,20.20
2018-12-26T07:23:08.095Z,19.37
2018-12-26T07:25:36.546Z,20.00
2018-12-26T07:28:09.258Z,20.33
2018-12-26T07:30:35.170Z,20.10
2018-12-26T07:33:03.603Z,20.10
2018-12-26T07:35:32.391Z,20.30
2018-12-26T07:38:00.842Z,20.50
2018-12-26T07:40:29.648Z,19.77
2018-12-26T07:42:58.121Z,20.77
2018-12-26T07:45:26.602Z,19.33
2018-12-26T07:47:55.053Z,20.27
2018-12-26T07:50:23.510Z,20.57
2018-12-26T07:52:52.242Z,19.20
2018-12-26T07:55:20.797Z,19.43
2018-12-26T07:57:49.303Z,20.00
2018-12-26T08:00:17.741Z,20.60
2018-12-26T08:02:46.179Z,19.10
2018-12-26T08:05:14.648Z,19.70
2018-12-26T08:07:43.188Z,19.70
2018-12-26T08:10:11.656Z,20.10
2018-12-26T08:12:40.112Z,20.00
2018-12-26T08:15:14.426Z,20.30
2018-12-26T08:17:44.503Z,20.23
2018-12-26T08:20:13.333Z,19.67
2018-12-26T08:22:41.836Z,20.70
2018-12-26T08:25:10.283Z,20.50
2018-12-26T08:27:38.747Z,19.90
2018-12-26T08:30:07.564Z,21.10
2018-12-26T08:32:36.041Z,20.07
2018-12-26T08:35:04.907Z,20.03
2018-12-26T08:37:33.662Z,19.10
2018-12-26T08:40:02.507Z,19.27
2018-12-26T08:42:31.067Z,18.07
2018-12-26T08:44:59.795Z,18.73
2018-12-26T08:47:28.541Z,20.33
2018-12-26T08:49:57.305Z,19.90
2018-12-26T08:52:26.103Z,20.47
2018-12-26T08:54:54.662Z,20.00
2018-12-26T08:57:24.007Z,18.20
2018-12-26T08:59:52.527Z,20.70
2018-12-26T09:02:21.298Z,18.53
2018-12-26T09:04:49.724Z,21.00
2018-12-26T09:07:18.175Z,20.60
2018-12-26T09:09:46.647Z,20.27
2018-12-26T09:12:15.099Z,19.63
2018-12-26T09:14:43.580Z,19.97
2018-12-26T09:17:12.026Z,20.20
2018-12-26T09:19:40.768Z,20.50
2018-12-26T09:22:09.284Z,20.00
2018-12-26T09:24:38.127Z,19.90
2018-12-26T09:27:07.717Z,20.10
2018-12-26T09:29:36.168Z,20.23
2018-12-26T09:32:04.700Z,19.90
2018-12-26T09:34:33.173Z,19.67
2018-12-26T09:37:01.626Z,19.57
2018-12-26T09:39:30.348Z,19.97
2018-12-26T09:41:59.053Z,19.90
2018-12-26T09:44:27.511Z,19.47
2018-12-26T09:46:55.947Z,19.67
2018-12-26T09:49:24.727Z,19.13
2018-12-26T09:51:53.685Z,19.50
2018-12-26T09:54:22.862Z,21.70
2018-12-26T09:56:51.595Z,22.47
2018-12-26T09:59:20.095Z,20.13
2018-12-26T10:01:48.728Z,19.80
2018-12-26T10:04:17.207Z,20.67
2018-12-26T10:06:45.939Z,18.70
2018-12-26T10:09:14.631Z,18.73
2018-12-26T10:11:43.083Z,19.67
2018-12-26T10:14:11.875Z,19.70
2018-12-26T10:16:40.631Z,18.30
2018-12-26T10:19:09.372Z,18.77
2018-12-26T10:21:37.829Z,18.27
2018-12-26T10:24:06.535Z,19.00
2018-12-26T10:26:35.060Z,18.37
2018-12-26T10:29:03.755Z,18.40
2018-12-26T10:31:32.228Z,18.40
2018-12-26T10:34:01.027Z,19.60
2018-12-26T10:36:29.745Z,19.67
2018-12-26T10:38:58.179Z,19.13
2018-12-26T10:41:26.900Z,19.20
2018-12-26T10:43:55.591Z,20.80
2018-12-26T10:46:24.034Z,19.67
2018-12-26T10:48:52.455Z,19.20
2018-12-26T10:51:21.225Z,20.30
2018-12-26T10:53:49.666Z,18.60
2018-12-26T10:56:18.100Z,19.67
2018-12-26T10:58:46.526Z,18.93
2018-12-26T11:01:14.977Z,20.37
2018-12-26T11:03:43.672Z,18.87
2018-12-26T11:06:12.439Z,19.83
2018-12-26T11:08:41.139Z,19.60
2018-12-26T11:11:09.695Z,18.50
2018-12-26T11:13:38.403Z,20.60
2018-12-26T11:16:07.302Z,19.37
2018-12-26T11:18:35.726Z,19.20
2018-12-26T11:21:04.234Z,17.80
2018-12-26T11:23:32.951Z,18.50
2018-12-26T11:26:01.653Z,18.30
2018-12-26T11:28:30.395Z,19.17
2018-12-26T11:30:58.822Z,18.40
2018-12-26T11:33:27.594Z,18.17
2018-12-26T11:35:56.284Z,19.17
2018-12-26T11:38:25.047Z,19.50
2018-12-26T11:40:53.821Z,18.97
2018-12-26T11:43:22.271Z,18.80
2018-12-26T11:45:51.001Z,20.07
2018-12-26T11:48:19.715Z,19.60
2018-12-26T11:50:48.476Z,18.50
2018-12-26T11:53:17.775Z,18.97
2018-12-26T11:55:47.120Z,18.17
2018-12-26T11:58:16.309Z,19.77
2018-12-26T12:00:45.194Z,18.90
2018-12-26T12:03:13.998Z,18.67
2018-12-26T12:05:42.770Z,19.43
2018-12-26T12:08:11.436Z,19.53
2018-12-26T12:10:39.885Z,18.50
2018-12-26T12:13:08.383Z,17.87
2018-12-26T12:15:36.842Z,18.90
2018-12-26T12:18:05.392Z,18.87
2018-12-26T12:20:33.910Z,18.90
2018-12-26T12:23:02.355Z,19.47
2018-12-26T12:25:31.146Z,17.93
2018-12-26T12:27:59.858Z,15.90
2018-12-26T12:30:28.632Z,17.57
2018-12-26T12:32:57.828Z,18.10
2018-12-26T12:35:27.120Z,17.83
2018-12-26T12:37:56.185Z,18.50
2018-12-26T12:40:25.150Z,18.77
2018-12-26T12:42:53.675Z,17.50
2018-12-26T12:45:22.509Z,17.50
2018-12-26T12:47:51.140Z,18.07
2018-12-26T12:50:19.915Z,17.90
2018-12-26T12:52:48.382Z,17.90
2018-12-26T12:55:17.137Z,18.57
2018-12-26T12:57:45.717Z,18.00
2018-12-26T13:00:14.247Z,16.53
2018-12-26T13:02:43.188Z,17.73
2018-12-26T13:05:11.723Z,17.90
2018-12-26T13:07:40.477Z,19.00
2018-12-26T13:10:08.920Z,18.10
2018-12-26T13:12:37.351Z,18.03
2018-12-26T13:15:06.063Z,18.87
2018-12-26T13:17:34.495Z,19.30
2018-12-26T13:20:02.950Z,17.67
2018-12-26T13:22:31.383Z,18.60
2018-12-26T13:25:00.213Z,17.63
2018-12-26T13:27:28.651Z,16.60
2018-12-26T13:29:57.175Z,16.97
2018-12-26T13:32:25.626Z,16.80
2018-12-26T13:34:54.365Z,16.67
2018-12-26T13:37:22.824Z,16.60
2018-12-26T13:39:51.274Z,17.73
2018-12-26T13:42:19.741Z,17.30
2018-12-26T13:44:48.182Z,16.20
2018-12-26T13:47:16.695Z,16.77
2018-12-26T13:49:45.147Z,17.90
2018-12-26T13:52:13.932Z,16.17
2018-12-26T13:54:44.829Z,18.07
2018-12-26T13:57:13.301Z,16.93
2018-12-26T13:59:42.118Z,16.67
2018-12-26T14:02:10.948Z,17.23
2018-12-26T14:04:39.515Z,17.80
2018-12-26T14:07:08.297Z,17.30
2018-12-26T14:09:37.060Z,17.20
2018-12-26T14:12:05.829Z,18.00
2018-12-26T14:14:34.278Z,18.00
2018-12-26T14:17:03.067Z,18.80
2018-12-26T14:19:31.566Z,17.10
2018-12-26T14:22:00.048Z,16.87
2018-12-26T14:24:28.588Z,18.03
2018-12-26T14:26:57.063Z,17.60
2018-12-26T14:29:25.560Z,17.87
2018-12-26T14:31:54.117Z,17.20
2018-12-26T14:34:22.873Z,16.30
2018-12-26T14:36:51.404Z,19.20
2018-12-26T14:39:19.952Z,17.90
2018-12-26T14:41:48.400Z,18.43
2018-12-26T14:44:17.272Z,18.47
2018-12-26T14:46:46.321Z,18.50
2018-12-26T14:49:15.214Z,18.60
2018-12-26T14:51:43.957Z,20.80
2018-12-26T14:54:12.756Z,18.80
2018-12-26T14:56:41.237Z,17.60
2018-12-26T14:59:09.689Z,19.20
2018-12-26T15:01:38.448Z,19.93
2018-12-26T15:04:07.336Z,17.80
2018-12-26T15:06:35.775Z,18.13
2018-12-26T15:09:06.519Z,17.90
2018-12-26T15:11:35.284Z,18.20
2018-12-26T15:14:03.749Z,18.07
2018-12-26T15:16:32.475Z,17.90
2018-12-26T15:19:17.600Z,18.40
2018-12-26T15:21:46.030Z,17.27
2018-12-26T15:24:14.476Z,18.30
2018-12-26T15:26:43.232Z,18.00
2018-12-26T15:29:11.677Z,17.50
2018-12-26T15:31:40.419Z,17.47
2018-12-26T15:34:08.909Z,18.60
2018-12-26T15:36:37.675Z,17.70
2018-12-26T15:39:08.577Z,18.17
2018-12-26T15:41:37.387Z,17.57
2018-12-26T15:44:05.850Z,17.23
2018-12-26T15:46:34.299Z,17.43
2018-12-26T15:49:02.852Z,17.37
2018-12-26T15:51:31.330Z,16.17
2018-12-26T15:53:59.949Z,16.47
2018-12-26T15:56:28.519Z,18.33
2018-12-26T15:58:57.098Z,17.57
2018-12-26T16:01:26.109Z,18.17
2018-12-26T16:03:54.784Z,17.80
2018-12-26T16:06:23.293Z,17.63
2018-12-26T16:08:51.755Z,16.97
2018-12-26T16:11:20.607Z,16.83
2018-12-26T16:13:50.617Z,17.23
2018-12-26T16:16:19.106Z,16.57
2018-12-26T16:18:47.860Z,16.63
2018-12-26T16:21:16.679Z,16.27
2018-12-26T16:23:45.489Z,17.80
2018-12-26T16:26:14.289Z,18.40
2018-12-26T16:28:42.785Z,22.53
2018-12-26T16:31:11.781Z,18.70
2018-12-26T16:33:40.264Z,16.20
2018-12-26T16:36:08.743Z,17.10
2018-12-26T16:38:37.507Z,18.00
2018-12-26T16:41:06.051Z,16.07
2018-12-26T16:43:34.581Z,16.07
2018-12-26T16:46:03.123Z,17.90
2018-12-26T16:48:31.989Z,17.40
2018-12-26T16:51:00.829Z,17.10
2018-12-26T16:53:29.607Z,18.87
2018-12-26T16:55:58.074Z,17.50
2018-12-26T16:58:26.614Z,17.87
2018-12-26T17:00:55.418Z,17.80
2018-12-26T17:03:24.268Z,17.83
2018-12-26T17:05:53.074Z,17.80
2018-12-26T17:08:21.947Z,17.40
2018-12-26T17:10:50.767Z,17.27
2018-12-26T17:13:19.246Z,16.80
2018-12-26T17:15:47.747Z,14.60
2018-12-26T17:18:16.228Z,15.40
2018-12-26T17:20:45.055Z,14.70
2018-12-26T17:23:13.658Z,15.57
2018-12-26T17:25:42.417Z,15.43
2018-12-26T17:28:11.710Z,17.00
2018-12-26T17:30:40.536Z,16.80
2018-12-26T17:33:09.027Z,17.30
2018-12-26T17:35:37.790Z,16.83
2018-12-26T17:38:06.327Z,17.17
2018-12-26T17:40:35.204Z,15.80
2018-12-26T17:43:03.791Z,15.07
2018-12-26T17:45:32.408Z,15.93
2018-12-26T17:48:00.934Z,17.20
2018-12-26T17:50:44.379Z,16.07
2018-12-26T17:53:15.954Z,17.53
2018-12-26T17:56:08.112Z,15.93
2018-12-26T17:58:39.741Z,15.87
2018-12-26T18:01:36.557Z,16.23
2018-12-26T18:04:05.047Z,16.20
2018-12-26T18:06:33.892Z,15.00
2018-12-26T18:09:02.773Z,16.47
2018-12-26T18:11:31.339Z,15.43
2018-12-26T18:13:59.874Z,15.57
2018-12-26T18:16:28.406Z,17.13
2018-12-26T18:18:57.266Z,16.30
2018-12-26T18:21:26.592Z,16.17
2018-12-26T18:23:55.411Z,16.40
2018-12-26T18:26:24.587Z,16.60
2018-12-26T18:28:53.347Z,17.10
2018-12-26T18:31:22.389Z,17.10
2018-12-26T18:33:54.348Z,16.53
2018-12-26T18:36:23.188Z,17.00
2018-12-26T18:38:52.161Z,16.20
2018-12-26T18:41:21.021Z,17.60
2018-12-26T18:43:49.576Z,17.07
2018-12-26T18:46:18.186Z,18.23
2018-12-26T18:48:47.061Z,18.70
2018-12-26T18:51:15.503Z,17.63
2018-12-26T18:53:44.018Z,18.17
2018-12-26T18:56:12.542Z,19.23
2018-12-26T18:58:41.383Z,18.03
2018-12-26T19:01:09.840Z,18.37
2018-12-26T19:03:38.316Z,17.53
2018-12-26T19:06:07.087Z,18.57
2018-12-26T19:08:35.540Z,18.50
2018-12-26T19:11:04.060Z,18.87
2018-12-26T19:13:32.519Z,18.40
2018-12-26T19:16:00.976Z,18.07
2018-12-26T19:18:29.709Z,18.57
2018-12-26T19:20:58.182Z,18.37
2018-12-26T19:23:26.630Z,16.70
2018-12-26T19:25:55.446Z,17.40
2018-12-26T19:28:23.976Z,17.40
2018-12-26T19:30:52.437Z,15.83
2018-12-26T19:33:20.887Z,18.13
2018-12-26T19:35:49.344Z,17.77
2018-12-26T19:38:18.150Z,19.63
2018-12-26T19:40:46.673Z,18.20
2018-12-26T19:43:15.699Z,18.00
2018-12-26T19:45:44.736Z,18.70
2018-12-26T19:48:13.476Z,17.70
2018-12-26T19:50:42.020Z,17.20
2018-12-26T19:53:10.648Z,17.80
2018-12-26T19:55:39.486Z,18.60
2018-12-26T19:58:08.031Z,18.10
2018-12-26T20:00:36.993Z,17.60
2018-12-26T20:03:05.553Z,17.90
2018-12-26T20:05:34.415Z,19.30
2018-12-26T20:08:03.477Z,20.10
2018-12-26T20:10:32.200Z,18.67
2018-12-26T20:13:01.396Z,19.07
2018-12-26T20:15:29.944Z,19.33
2018-12-26T20:17:58.995Z,17.70
2018-12-26T20:20:27.578Z,19.60
2018-12-26T20:22:56.168Z,19.07
2018-12-26T20:25:25.065Z,20.50
2018-12-26T20:27:53.848Z,19.47
2018-12-26T20:30:22.655Z,21.00
2018-12-26T20:32:51.115Z,20.53
2018-12-26T20:35:19.601Z,21.27
2018-12-26T20:37:48.437Z,20.57
2018-12-26T20:40:16.948Z,19.03
2018-12-26T20:42:45.739Z,18.87
2018-12-26T20:45:14.756Z,19.87
2018-12-26T20:47:43.375Z,19.30
2018-12-26T20:50:12.007Z,19.03
2018-12-26T20:52:40.638Z,20.97
2018-12-26T20:55:09.659Z,19.47
2018-12-26T20:57:38.525Z,18.30
2018-12-26T21:00:09.968Z,19.23
2018-12-26T21:02:39.220Z,18.67
2018-12-26T21:05:08.602Z,18.73
2018-12-26T21:07:37.806Z,19.00
2018-12-26T21:10:08.527Z,20.10
2018-12-26T21:12:37.721Z,19.60
2018-12-26T21:15:07.262Z,19.27
2018-12-26T21:17:36.099Z,19.73
2018-12-26T21:20:07.092Z,19.33
2018-12-26T21:22:35.846Z,21.00
2018-12-26T21:25:06.093Z,20.20
2018-12-26T21:27:34.865Z,19.97
2018-12-26T21:30:05.836Z,20.07
2018-12-26T21:32:35.151Z,19.30
2018-12-26T21:35:04.828Z,19.07
2018-12-26T21:37:33.698Z,20.73
2018-12-26T21:40:02.387Z,18.70
2018-12-26T21:42:31.519Z,19.03
2018-12-26T21:45:00.435Z,19.60
2018-12-26T21:47:29.566Z,19.40
2018-12-26T21:49:58.860Z,19.43
2018-12-26T21:52:28.111Z,19.50
2018-12-26T21:54:57.012Z,20.90
2018-12-26T21:57:25.799Z,18.37
2018-12-26T21:59:55.147Z,18.70
2018-12-26T22:02:24.312Z,19.00
2018-12-26T22:04:53.444Z,18.70
2018-12-26T22:07:22.536Z,17.60
2018-12-26T22:09:51.573Z,19.57
2018-12-26T22:12:20.265Z,17.50
2018-12-26T22:14:49.058Z,18.53
2018-12-26T22:17:17.766Z,18.03
2018-12-26T22:19:46.624Z,17.80
2018-12-26T22:22:15.767Z,18.07
2018-12-26T22:24:44.970Z,18.47
2018-12-26T22:27:14.206Z,17.47
2018-12-26T22:29:43.443Z,17.20
2018-12-26T22:32:14.917Z,19.07
2018-12-26T22:34:43.769Z,19.33
2018-12-26T22:37:12.533Z,20.03
2018-12-26T22:39:41.527Z,18.30
2018-12-26T22:42:10.644Z,19.87
2018-12-26T22:44:39.753Z,19.53
2018-12-26T22:47:08.749Z,21.30
2018-12-26T22:49:37.831Z,26.67
2018-12-26T22:52:06.304Z,26.20
2018-12-26T22:54:35.366Z,20.90
2018-12-26T22:57:04.603Z,19.97
2018-12-26T22:59:33.221Z,18.37
2018-12-26T23:02:01.920Z,20.07
2018-12-26T23:04:31.037Z,21.43
2018-12-26T23:07:00.194Z,19.80
2018-12-26T23:09:28.916Z,21.40
2018-12-26T23:11:57.711Z,20.50
2018-12-26T23:14:26.476Z,20.80
2018-12-26T23:16:55.344Z,20.60
2018-12-26T23:19:24.451Z,19.60
2018-12-26T23:21:53.552Z,19.57
2018-12-26T23:24:22.203Z,19.30
2018-12-26T23:26:51.123Z,20.13
2018-12-26T23:29:19.840Z,22.40
2018-12-26T23:31:48.964Z,22.80
2018-12-26T23:34:17.630Z,23.80
2018-12-26T23:36:46.370Z,27.43
2018-12-26T23:39:15.183Z,25.00
2018-12-26T23:41:43.859Z,21.93
2018-12-26T23:44:12.918Z,21.43
2018-12-26T23:46:41.794Z,20.90
2018-12-26T23:49:10.598Z,19.57
2018-12-26T23:51:39.537Z,18.57
2018-12-26T23:54:08.637Z,19.07
2018-12-26T23:56:37.319Z,20.00
2018-12-26T23:59:06.075Z,18.47
